LCLK

Larnaca International Airport

Airport
ICAO code
LCLK
IATA Code
LCA
Summary
ICAO Region
EUR
ICAO Territory
Location

Larnaca, Larnaca

Serving
Larnaca
Coordinates
34° 52' 24" N , 33° 37' 24" E
KCC
Metar
Observation
LCLK 281000Z 02018KT 9999 FEW020 22/13 Q1012 NOSIG
Station
Larnaca Airport
Date/Time
2022-11-28 10:00:00
Wind direction
20°
Wind speed
18 kts
Lowest cloud amount
few clouds
Temperature
22°C
Dew point
13°C
Humidity
56%
QNH
1012 hPa
Weather condition
n/a

Description

Larnaca International Airport is an international airport located 4 km southwest of Larnaca, Cyprus. Larnaca International Airport is Cyprus' main international gateway and the larger of the country's two commercial airports, the other being Paphos International Airport on the island's southwestern coast. Larnaca serves Larnaca, Nicosia and Famagusta.

Climatology

Dry-summer subtropical ”Mediterranean" climate (Köppen climate classification Csa) - characterized by hot, dry summers and mild winters. During the summer, subtropical high pressure cells dominate, making rainfall unlikely except for the occasional thunderstorm. In the winter, periodic storms bring rain (snow at higher elevations).

Runways

Designator Length Width Surface Rops
4/22 2980 45 ASP Yes/Yes

Airport map

Aerial View

SKYbrary Partners:

Safety knowledge contributed by: